Time;durP1;ratioP1;P1;durP2;ratioP2;P2;SDS_P1;SDS_P2;PMS_P1;PMS_P2;Temp;Humidity;BMP_temperature;BMP_pressure;BME280_temperature;BME280_humidity;BME280_pressure;Samples;Min_cycle;Max_cycle;Signal;HPM_P1;HPM_P2
2023/12/02 00:00:38;;;;;;;29.63;18.05;;;;;;;-3.11;100.00;100935.31;1038819;28;20052;-48
2023/12/02 00:01:32;;;;;;;29.24;17.00;;;;;;;-3.11;100.00;100940.53;1027305;28;20130;-46
2023/12/02 00:02:07;;;;;;;28.68;18.40;;;;;;;-2.98;100.00;100941.19;1021977;28;20492;-47
2023/12/02 00:02:39;;;;;;;30.56;19.48;;;;;;;-2.94;100.00;100937.38;1018941;29;20414;-47
2023/12/02 00:03:10;;;;;;;33.02;19.42;;;;;;;-2.82;100.00;100936.34;1026394;28;20043;-47
2023/12/02 00:03:42;;;;;;;30.70;19.50;;;;;;;-2.86;100.00;100939.34;1028367;28;20145;-47
2023/12/02 00:04:14;;;;;;;35.36;20.58;;;;;;;-2.92;100.00;100940.69;1034055;28;20061;-47
2023/12/02 00:04:46;;;;;;;28.82;19.78;;;;;;;-2.95;100.00;100930.53;1031002;28;20050;-48
2023/12/02 00:05:17;;;;;;;31.55;20.13;;;;;;;-2.84;100.00;100940.88;1033117;28;20057;-47
2023/12/02 00:05:50;;;;;;;30.00;20.20;;;;;;;-2.68;100.00;100937.00;1034311;28;20300;-47
2023/12/02 00:06:38;;;;;;;32.40;20.92;;;;;;;-2.54;100.00;100931.44;1036707;28;20038;-47
2023/12/02 00:07:36;;;;;;;33.18;20.12;;;;;;;-2.53;100.00;100940.91;1030566;28;20057;-48
2023/12/02 00:10:09;;;;;;;28.86;17.96;;;;;;;-2.68;100.00;100937.81;1026148;28;20448;-47
2023/12/02 00:11:21;;;;;;;29.60;19.20;;;;;;;-2.78;100.00;100936.09;1024608;28;20085;-49
2023/12/02 00:12:25;;;;;;;27.83;16.88;;;;;;;-2.54;100.00;100941.88;1031801;28;20046;-47
2023/12/02 00:13:40;;;;;;;29.98;17.70;;;;;;;-2.44;100.00;100934.94;1032852;28;20039;-47
2023/12/02 00:15:07;;;;;;;31.38;18.40;;;;;;;-2.60;100.00;100934.56;1021133;29;20040;-49
2023/12/02 00:15:56;;;;;;;29.72;16.60;;;;;;;-2.63;100.00;100940.88;1037163;28;20049;-49
2023/12/02 00:16:53;;;;;;;34.92;19.70;;;;;;;-2.61;100.00;100943.34;1032713;28;20057;-49
2023/12/02 00:17:47;;;;;;;34.04;18.44;;;;;;;-2.51;100.00;100944.22;1033832;28;20050;-49
2023/12/02 00:18:41;;;;;;;29.40;18.46;;;;;;;-2.49;100.00;100942.31;1036417;28;20038;-52
2023/12/02 00:19:36;;;;;;;31.98;19.74;;;;;;;-2.63;100.00;100940.03;1028113;28;20501;-47
2023/12/02 00:20:33;;;;;;;31.48;18.38;;;;;;;-2.78;100.00;100946.53;1031195;28;20508;-49
2023/12/02 00:21:47;;;;;;;29.86;18.60;;;;;;;-2.55;100.00;100948.03;1035080;28;20039;-48
2023/12/02 00:22:39;;;;;;;31.12;17.12;;;;;;;-2.44;100.00;100939.34;1035872;28;20060;-46
2023/12/02 00:23:25;;;;;;;33.60;19.15;;;;;;;-2.36;100.00;100942.94;1032161;28;20046;-47
2023/12/02 00:23:57;;;;;;;32.14;19.36;;;;;;;-2.35;100.00;100934.16;1036125;28;20038;-47
2023/12/02 00:24:28;;;;;;;31.22;18.94;;;;;;;-2.34;100.00;100941.03;1035540;28;20046;-49
2023/12/02 00:25:00;;;;;;;34.35;20.50;;;;;;;-2.32;100.00;100938.28;1039834;28;20099;-47
2023/12/02 00:25:32;;;;;;;30.34;20.00;;;;;;;-2.34;100.00;100938.41;1037318;28;20308;-46
2023/12/02 00:26:03;;;;;;;38.83;19.52;;;;;;;-2.33;100.00;100937.47;1039396;28;20128;-47
2023/12/02 00:26:35;;;;;;;32.60;20.50;;;;;;;-2.34;100.00;100935.81;1039540;28;20695;-47
2023/12/02 00:27:08;;;;;;;32.70;20.90;;;;;;;-2.33;100.00;100934.84;1039128;28;20299;-46
2023/12/02 00:27:39;;;;;;;28.15;18.05;;;;;;;-2.33;100.00;100937.47;1038886;28;20045;-48
2023/12/02 00:28:11;;;;;;;29.98;19.05;;;;;;;-2.31;100.00;100932.94;1038836;28;20708;-47
2023/12/02 00:28:42;;;;;;;30.18;18.74;;;;;;;-2.33;100.00;100927.03;1039169;28;20399;-48
2023/12/02 00:29:15;;;;;;;31.76;21.08;;;;;;;-2.33;100.00;100929.63;1039052;28;20045;-47
2023/12/02 00:29:46;;;;;;;32.16;20.70;;;;;;;-2.31;100.00;100930.31;1039631;28;20049;-47
2023/12/02 00:30:18;;;;;;;31.42;20.24;;;;;;;-2.44;100.00;100929.72;1040154;28;20502;-47
2023/12/02 00:30:50;;;;;;;29.10;19.18;;;;;;;-2.40;100.00;100931.13;1039486;28;20574;-48
2023/12/02 00:31:21;;;;;;;30.90;19.54;;;;;;;-2.34;100.00;100927.97;1039833;28;20056;-48
2023/12/02 00:31:53;;;;;;;32.34;19.76;;;;;;;-2.30;100.00;100928.53;1039982;28;20042;-47
2023/12/02 00:32:25;;;;;;;30.54;19.86;;;;;;;-2.35;100.00;100923.72;1039964;28;20046;-49
2023/12/02 00:33:00;;;;;;;30.60;19.76;;;;;;;-2.61;100.00;100923.31;1040019;28;20048;-49
2023/12/02 00:33:32;;;;;;;31.48;20.02;;;;;;;-2.63;100.00;100925.22;1039577;28;20579;-46
2023/12/02 00:34:03;;;;;;;31.15;19.52;;;;;;;-2.58;100.00;100919.63;1039661;28;20047;-46
2023/12/02 00:34:35;;;;;;;28.06;18.70;;;;;;;-2.57;100.00;100923.88;1040095;28;20296;-47
2023/12/02 00:35:07;;;;;;;30.62;19.70;;;;;;;-2.47;100.00;100927.34;1037963;28;20129;-48
2023/12/02 00:35:39;;;;;;;31.20;20.05;;;;;;;-2.38;100.00;100923.97;1039789;28;20049;-46
2023/12/02 00:36:11;;;;;;;29.17;19.25;;;;;;;-2.33;100.00;100924.41;1039730;28;20452;-49
2023/12/02 00:36:46;;;;;;;29.28;18.62;;;;;;;-2.29;100.00;100938.00;1039904;28;20304;-48
2023/12/02 00:37:17;;;;;;;30.92;19.88;;;;;;;-2.31;100.00;100919.88;1039904;28;20501;-47
2023/12/02 00:37:49;;;;;;;31.48;20.94;;;;;;;-2.36;100.00;100924.69;1039575;28;20304;-46
2023/12/02 00:38:21;;;;;;;29.52;19.58;;;;;;;-2.44;100.00;100926.28;1039624;28;20053;-47
2023/12/02 00:38:52;;;;;;;31.96;19.18;;;;;;;-2.49;100.00;100929.25;1039971;28;20368;-47
2023/12/02 00:39:24;;;;;;;30.70;20.00;;;;;;;-2.51;100.00;100928.56;1040354;28;20415;-47
2023/12/02 00:39:56;;;;;;;30.62;20.40;;;;;;;-2.61;100.00;100930.31;1039942;28;20283;-46
2023/12/02 00:40:27;;;;;;;31.70;18.98;;;;;;;-2.55;100.00;100927.19;1039544;28;20505;-47
2023/12/02 00:40:59;;;;;;;27.64;18.12;;;;;;;-2.76;100.00;100926.38;1039897;28;20323;-47
2023/12/02 00:41:31;;;;;;;28.96;19.14;;;;;;;-2.98;100.00;100925.56;1039227;28;20048;-47
2023/12/02 00:42:03;;;;;;;30.60;19.67;;;;;;;-2.98;100.00;100920.34;1039522;28;20053;-49
2023/12/02 00:42:34;;;;;;;31.82;19.70;;;;;;;-2.81;100.00;100927.59;1039099;28;20303;-47
2023/12/02 00:43:06;;;;;;;26.17;18.98;;;;;;;-2.80;100.00;100929.22;1039803;28;20044;-47
2023/12/02 00:43:38;;;;;;;28.73;19.90;;;;;;;-2.79;100.00;100930.06;1040114;28;20303;-49
2023/12/02 00:44:09;;;;;;;31.63;20.67;;;;;;;-2.95;100.00;100925.31;1039846;28;20377;-48
2023/12/02 00:44:41;;;;;;;27.33;20.05;;;;;;;-2.82;100.00;100931.16;1039692;28;20965;-50
2023/12/02 00:45:13;;;;;;;29.52;20.34;;;;;;;-2.65;100.00;100931.53;1039782;28;20304;-46
2023/12/02 00:45:44;;;;;;;31.00;19.88;;;;;;;-2.75;100.00;100928.03;1039738;28;20195;-46
2023/12/02 00:46:16;;;;;;;29.08;18.85;;;;;;;-2.72;100.00;100930.41;1040002;28;20308;-48
2023/12/02 00:46:47;;;;;;;27.23;19.27;;;;;;;-2.67;100.00;100926.44;1039855;28;21026;-48
2023/12/02 00:47:19;;;;;;;30.17;19.35;;;;;;;-2.85;100.00;100926.19;1043864;28;20299;-47
2023/12/02 00:47:51;;;;;;;30.27;18.45;;;;;;;-2.79;100.00;100924.84;1043399;28;20303;-50
2023/12/02 00:48:23;;;;;;;26.67;18.17;;;;;;;-2.76;100.00;100929.81;1043556;28;20386;-48
2023/12/02 00:48:55;;;;;;;31.12;18.60;;;;;;;-2.78;100.00;100925.66;1043125;28;20299;-48
2023/12/02 00:49:27;;;;;;;29.44;18.32;;;;;;;-2.70;100.00;100928.50;1039975;28;20041;-48
2023/12/02 00:49:59;;;;;;;30.13;19.45;;;;;;;-2.68;100.00;100932.63;1039721;28;20179;-47
2023/12/02 00:50:30;;;;;;;27.64;18.50;;;;;;;-2.49;100.00;100924.03;1039697;28;20299;-48
2023/12/02 00:51:02;;;;;;;28.48;18.52;;;;;;;-2.42;100.00;100921.78;1040215;28;20045;-48
2023/12/02 00:51:34;;;;;;;27.24;18.84;;;;;;;-2.54;100.00;100923.63;1040019;28;20639;-49
2023/12/02 00:52:06;;;;;;;28.70;19.38;;;;;;;-2.48;100.00;100923.09;1039632;28;20099;-48
2023/12/02 00:52:37;;;;;;;31.98;20.98;;;;;;;-2.72;100.00;100922.56;1039895;28;20353;-48
2023/12/02 00:53:09;;;;;;;26.23;19.00;;;;;;;-2.91;100.00;100921.50;1039197;28;20307;-46
2023/12/02 00:53:40;;;;;;;31.98;20.90;;;;;;;-3.10;100.00;100923.97;1039696;28;20304;-47
2023/12/02 00:54:12;;;;;;;32.63;19.55;;;;;;;-3.15;100.00;100915.69;1039871;28;20292;-48
2023/12/02 00:54:44;;;;;;;30.35;20.25;;;;;;;-2.84;100.00;100922.63;1040178;28;20291;-46
2023/12/02 00:55:16;;;;;;;30.33;19.30;;;;;;;-2.68;100.00;100931.78;1039908;28;20303;-47
2023/12/02 00:55:47;;;;;;;29.60;19.77;;;;;;;-2.48;100.00;100923.09;1039542;28;20306;-48
2023/12/02 00:56:19;;;;;;;25.73;18.80;;;;;;;-2.46;100.00;100928.22;1039770;28;20692;-48
2023/12/02 00:56:50;;;;;;;31.92;19.75;;;;;;;-2.41;100.00;100924.25;1039267;28;20304;-49
2023/12/02 00:57:22;;;;;;;29.25;17.98;;;;;;;-2.30;100.00;100921.53;1039430;28;20434;-47
2023/12/02 00:57:54;;;;;;;29.88;19.52;;;;;;;-2.28;100.00;100918.78;1039380;28;20303;-49
2023/12/02 00:58:25;;;;;;;30.72;19.46;;;;;;;-2.26;100.00;100917.72;1039769;28;20303;-47
2023/12/02 00:59:08;;;;;;;29.46;19.16;;;;;;;-2.26;100.00;100914.28;1039155;28;20500;-47
2023/12/02 00:59:40;;;;;;;29.88;18.42;;;;;;;-2.28;100.00;100919.63;1039906;28;20188;-47
2023/12/02 01:00:12;;;;;;;29.38;20.38;;;;;;;-2.28;100.00;100910.97;1039390;28;20302;-48
2023/12/02 01:00:44;;;;;;;31.23;19.63;;;;;;;-2.31;100.00;100912.06;1039867;28;20678;-47
2023/12/02 01:01:16;;;;;;;30.38;19.38;;;;;;;-2.35;100.00;100905.47;1040105;28;20298;-48
2023/12/02 01:01:47;;;;;;;29.64;19.74;;;;;;;-2.33;100.00;100911.38;1039416;28;20298;-47
2023/12/02 01:02:19;;;;;;;29.25;18.63;;;;;;;-2.34;100.00;100909.72;1039572;28;20041;-48
2023/12/02 01:02:51;;;;;;;33.04;20.40;;;;;;;-2.39;100.00;100905.84;1039862;28;20357;-46
2023/12/02 01:03:23;;;;;;;30.52;20.44;;;;;;;-2.35;100.00;100910.69;1039692;28;20042;-47
2023/12/02 01:03:54;;;;;;;28.62;19.66;;;;;;;-2.36;100.00;100901.19;1039513;28;20553;-47
2023/12/02 01:04:26;;;;;;;29.98;20.42;;;;;;;-2.30;100.00;100911.09;1039677;28;20095;-47
2023/12/02 01:05:20;;;;;;;28.46;18.40;;;;;;;-2.29;100.00;100906.72;1041203;28;20045;-46
2023/12/02 01:07:33;;;;;;;29.20;17.65;;;;;;;-2.38;100.00;100905.72;1042338;28;20041;-48
2023/12/02 01:08:30;;;;;;;30.88;19.00;;;;;;;-2.54;100.00;100900.16;1036970;28;20069;-47
2023/12/02 01:09:42;;;;;;;28.52;17.80;;;;;;;-2.98;100.00;100904.72;1016743;29;20048;-48
2023/12/02 01:10:17;;;;;;;25.82;16.76;;;;;;;-2.79;100.00;100904.00;1026933;28;20689;-48
2023/12/02 01:10:49;;;;;;;30.26;18.10;;;;;;;-2.67;100.00;100907.38;1027328;28;20050;-47
2023/12/02 01:11:36;;;;;;;31.68;20.18;;;;;;;-2.88;100.00;100910.81;1030306;28;20038;-47
2023/12/02 01:12:29;;;;;;;27.78;18.10;;;;;;;-2.91;100.00;100905.84;1038166;28;20053;-49
2023/12/02 01:13:01;;;;;;;30.66;17.96;;;;;;;-3.03;100.00;100911.25;1035275;28;20102;-49
2023/12/02 01:13:32;;;;;;;30.92;19.65;;;;;;;-2.87;100.00;100902.03;1035465;28;20046;-48
2023/12/02 01:14:04;;;;;;;29.38;18.94;;;;;;;-2.86;100.00;100905.47;1039543;28;20303;-49
2023/12/02 01:14:55;;;;;;;27.22;18.14;;;;;;;-2.90;100.00;100901.47;1044982;28;20119;-47
2023/12/02 01:16:05;;;;;;;32.00;19.54;;;;;;;-2.77;100.00;100893.44;1038948;28;20530;-49
2023/12/02 01:16:50;;;;;;;27.63;16.35;;;;;;;-2.58;100.00;100906.59;1032706;28;20314;-49
2023/12/02 01:17:40;;;;;;;28.00;16.02;;;;;;;-2.85;100.00;100905.34;1034586;28;20398;-49
2023/12/02 01:18:17;;;;;;;31.08;18.46;;;;;;;-2.78;100.00;100910.84;1027290;28;20308;-49
2023/12/02 01:18:50;;;;;;;30.20;17.90;;;;;;;-2.59;100.00;100903.16;1031786;28;20053;-50
2023/12/02 01:19:22;;;;;;;26.46;18.26;;;;;;;-2.46;100.00;100915.16;1031672;28;20074;-49
2023/12/02 01:19:53;;;;;;;29.72;18.92;;;;;;;-2.42;100.00;100904.34;1038255;28;20046;-48
2023/12/02 01:20:25;;;;;;;30.02;19.28;;;;;;;-2.44;100.00;100903.66;1043810;28;20037;-48
2023/12/02 01:20:57;;;;;;;33.06;21.60;;;;;;;-2.46;100.00;100912.56;1043958;28;20094;-49
2023/12/02 01:21:29;;;;;;;29.52;19.90;;;;;;;-2.46;100.00;100913.38;1043634;28;20072;-49
2023/12/02 01:22:01;;;;;;;27.75;19.10;;;;;;;-2.51;100.00;100915.53;1043834;28;20623;-48
2023/12/02 01:22:32;;;;;;;27.70;18.58;;;;;;;-2.51;100.00;100912.94;1044025;28;20299;-49
2023/12/02 01:23:04;;;;;;;29.55;18.52;;;;;;;-2.55;100.00;100911.53;1044221;28;20368;-50
2023/12/02 01:23:35;;;;;;;30.48;19.55;;;;;;;-2.58;100.00;100911.81;1044045;28;20295;-49
2023/12/02 01:24:07;;;;;;;33.54;20.14;;;;;;;-2.68;100.00;100911.75;1043854;28;20291;-52
2023/12/02 01:24:39;;;;;;;29.22;19.64;;;;;;;-2.72;100.00;100912.16;1043557;28;20116;-48
2023/12/02 01:27:13;;;;;;;27.02;17.63;;;;;;;-2.73;100.00;100923.53;1043575;28;20837;-47
2023/12/02 01:27:57;;;;;;;27.84;17.58;;;;;;;-2.96;100.00;100915.84;1044721;28;20307;-47
2023/12/02 01:28:55;;;;;;;28.76;17.24;;;;;;;-2.68;100.00;100923.97;1043612;28;20471;-47
2023/12/02 01:29:27;;;;;;;30.23;18.63;;;;;;;-2.74;100.00;100922.69;1043317;28;20558;-47
2023/12/02 01:29:59;;;;;;;31.18;18.34;;;;;;;-2.52;100.00;100926.91;1039106;28;20316;-47
2023/12/02 01:30:31;;;;;;;32.60;18.40;;;;;;;-2.45;100.00;100920.25;1042243;28;20090;-47
2023/12/02 01:31:03;;;;;;;28.34;18.42;;;;;;;-2.58;100.00;100917.00;1043843;28;20045;-47
2023/12/02 01:31:35;;;;;;;29.60;18.70;;;;;;;-2.93;100.00;100915.59;1043964;28;20052;-46
2023/12/02 01:32:06;;;;;;;25.56;17.96;;;;;;;-2.95;100.00;100920.09;1041762;28;20420;-46
2023/12/02 01:32:38;;;;;;;31.50;19.58;;;;;;;-2.81;100.00;100914.56;1043935;28;20892;-47
2023/12/02 01:33:09;;;;;;;27.42;18.13;;;;;;;-2.78;100.00;100915.25;1043720;28;20565;-48
2023/12/02 01:35:19;;;;;;;28.28;17.10;;;;;;;-2.83;100.00;100910.41;1044980;28;20323;-48
2023/12/02 01:36:30;;;;;;;26.85;17.85;;;;;;;-2.79;100.00;100914.41;1042574;28;20045;-49
2023/12/02 01:37:33;;;;;;;26.85;16.40;;;;;;;-2.65;100.00;100926.31;1057557;27;20380;-83
2023/12/02 01:38:05;;;;;;;30.58;19.33;;;;;;;-2.46;100.00;100929.03;1049082;28;20545;-83
2023/12/02 01:38:36;;;;;;;27.85;18.10;;;;;;;-2.35;100.00;100928.13;1039545;28;20307;-83
2023/12/02 01:39:08;;;;;;;28.83;18.80;;;;;;;-2.33;100.00;100936.63;1038372;28;20300;-83
2023/12/02 01:39:39;;;;;;;31.63;20.58;;;;;;;-2.30;100.00;100936.38;1038305;28;20319;-82
2023/12/02 01:40:12;;;;;;;27.27;18.35;;;;;;;-2.30;100.00;100934.59;1037979;28;20300;-83
2023/12/02 01:40:44;;;;;;;34.03;19.40;;;;;;;-2.27;100.00;100939.53;1038687;28;20308;-83
2023/12/02 01:41:15;;;;;;;28.88;18.80;;;;;;;-2.25;100.00;100945.44;1040209;28;20314;-83
2023/12/02 01:41:47;;;;;;;29.70;20.34;;;;;;;-2.23;100.00;100938.31;1040728;28;20044;-82
2023/12/02 01:42:19;;;;;;;32.88;20.85;;;;;;;-2.30;100.00;100929.38;1040277;28;20404;-83
2023/12/02 01:42:50;;;;;;;29.80;19.55;;;;;;;-2.66;100.00;100927.28;1040870;28;20300;-83
2023/12/02 01:43:25;;;;;;;29.77;18.48;;;;;;;-2.92;100.00;100925.06;1040565;28;20906;-83
2023/12/02 01:43:56;;;;;;;30.17;19.70;;;;;;;-2.97;100.00;100921.19;1035031;28;20461;-83
2023/12/02 01:44:28;;;;;;;29.06;17.96;;;;;;;-2.85;100.00;100920.97;1041546;28;20310;-82
2023/12/02 01:45:00;;;;;;;26.23;17.75;;;;;;;-2.73;100.00;100923.53;1038364;28;20048;-83
2023/12/02 01:45:31;;;;;;;29.88;20.63;;;;;;;-2.71;100.00;100924.22;1033973;28;20313;-83
2023/12/02 01:46:03;;;;;;;32.15;20.65;;;;;;;-2.70;100.00;100920.66;1032801;28;20293;-83
2023/12/02 01:46:35;;;;;;;33.08;20.10;;;;;;;-2.97;100.00;100923.78;1033033;28;20371;-83
2023/12/02 01:47:07;;;;;;;30.10;19.90;;;;;;;-2.85;100.00;100931.41;1042117;28;20402;-83
2023/12/02 01:47:39;;;;;;;31.23;20.92;;;;;;;-2.53;100.00;100930.47;1038488;28;20293;-83
2023/12/02 01:48:10;;;;;;;31.77;19.48;;;;;;;-2.44;100.00;100934.94;1037742;28;20410;-83
2023/12/02 01:48:43;;;;;;;30.05;18.20;;;;;;;-2.42;100.00;100937.41;1038804;28;20391;-82
2023/12/02 01:49:14;;;;;;;26.48;18.74;;;;;;;-2.44;100.00;100934.13;1041867;28;20323;-82
2023/12/02 01:49:47;;;;;;;29.38;19.63;;;;;;;-2.41;100.00;100929.47;1048021;28;20158;-82
2023/12/02 01:50:20;;;;;;;32.28;19.75;;;;;;;-2.38;100.00;100923.97;1042108;28;20323;-82
2023/12/02 01:50:51;;;;;;;30.15;19.95;;;;;;;-2.55;100.00;100919.34;1042427;28;20296;-82
2023/12/02 01:51:23;;;;;;;31.20;20.10;;;;;;;-2.46;100.00;100921.22;1042673;28;20648;-82
2023/12/02 01:51:55;;;;;;;28.98;19.78;;;;;;;-2.58;100.00;100917.84;1034444;28;20331;-82
2023/12/02 01:52:27;;;;;;;30.63;19.73;;;;;;;-2.67;100.00;100923.84;1037796;28;20041;-83
2023/12/02 01:52:59;;;;;;;30.48;19.65;;;;;;;-2.60;100.00;100929.34;1037951;28;20305;-83
2023/12/02 01:53:30;;;;;;;34.00;20.40;;;;;;;-2.53;100.00;100926.09;1038258;28;20781;-83
2023/12/02 01:54:03;;;;;;;29.80;19.55;;;;;;;-2.63;100.00;100930.44;1033728;28;20791;-83
2023/12/02 01:54:34;;;;;;;31.22;19.50;;;;;;;-2.47;100.00;100929.97;1042552;28;20346;-83
2023/12/02 01:55:07;;;;;;;28.92;18.15;;;;;;;-2.31;100.00;100935.53;1042610;28;20076;-83
2023/12/02 01:55:39;;;;;;;31.00;18.52;;;;;;;-2.30;100.00;100937.19;1046432;28;20303;-83
2023/12/02 01:56:11;;;;;;;27.78;18.62;;;;;;;-2.30;100.00;100936.38;1046782;28;20859;-83
2023/12/02 01:56:43;;;;;;;30.00;19.63;;;;;;;-2.26;100.00;100933.34;1043734;28;20048;-83
2023/12/02 01:57:30;;;;;;;31.95;20.67;;;;;;;-2.21;100.00;100936.41;1046598;28;20318;-82
2023/12/02 01:58:02;;;;;;;28.27;18.55;;;;;;;-2.22;100.00;100929.53;1038395;28;20307;-83
2023/12/02 01:58:35;;;;;;;29.98;20.18;;;;;;;-2.24;100.00;100935.84;1038173;28;20296;-83
2023/12/02 01:59:07;;;;;;;31.10;20.08;;;;;;;-2.41;100.00;100924.25;1038666;28;20109;-83
2023/12/02 01:59:44;;;;;;;29.83;19.83;;;;;;;-2.41;100.00;100924.25;1040733;28;20564;-83
2023/12/02 02:00:16;;;;;;;29.20;18.23;;;;;;;-2.38;100.00;100931.81;1038622;28;20447;-82
2023/12/02 02:00:48;;;;;;;28.86;19.66;;;;;;;-2.53;100.00;100925.28;1035557;28;20711;-83
2023/12/02 02:01:19;;;;;;;32.05;19.88;;;;;;;-2.53;100.00;100930.47;1035064;28;20050;-83
2023/12/02 02:01:51;;;;;;;28.75;19.67;;;;;;;-2.37;100.00;100933.47;1040202;28;20805;-82
2023/12/02 02:02:25;;;;;;;29.70;17.75;;;;;;;-2.26;100.00;100941.19;1043564;28;20296;-83
2023/12/02 02:02:57;;;;;;;31.56;19.64;;;;;;;-2.19;100.00;100949.34;1038729;28;20304;-83
2023/12/02 02:03:28;;;;;;;27.27;17.38;;;;;;;-2.21;100.00;100940.78;1034994;28;20057;-82
2023/12/02 02:04:00;;;;;;;29.63;19.40;;;;;;;-2.53;100.00;100935.69;1040690;28;20322;-83
2023/12/02 02:04:32;;;;;;;29.96;19.92;;;;;;;-2.56;100.00;100936.78;1044826;28;20304;-83
2023/12/02 02:05:04;;;;;;;32.00;20.17;;;;;;;-2.34;100.00;100940.19;1042841;28;20045;-83
2023/12/02 02:05:36;;;;;;;35.35;19.67;;;;;;;-2.24;100.00;100938.44;1034622;28;20297;-82
2023/12/02 02:06:10;;;;;;;28.13;19.63;;;;;;;-2.43;100.00;100936.59;1046217;28;20368;-82
2023/12/02 02:06:44;;;;;;;28.05;18.08;;;;;;;-2.51;100.00;100932.00;1042508;28;20303;-83
2023/12/02 02:07:17;;;;;;;26.77;18.08;;;;;;;-2.51;100.00;100936.41;1042235;28;20312;-83
2023/12/02 02:07:48;;;;;;;33.60;20.66;;;;;;;-2.56;100.00;100931.56;1040159;28;20303;-83
2023/12/02 02:08:20;;;;;;;30.85;19.92;;;;;;;-2.49;100.00;100939.69;1043141;28;20045;-83
2023/12/02 02:08:51;;;;;;;27.55;19.38;;;;;;;-2.66;100.00;100929.88;1042524;28;20311;-83
2023/12/02 02:09:23;;;;;;;30.35;20.02;;;;;;;-2.59;100.00;100934.44;1042236;28;20315;-83
2023/12/02 02:09:55;;;;;;;30.73;20.08;;;;;;;-2.58;100.00;100937.88;1042437;28;20307;-82
2023/12/02 02:10:26;;;;;;;28.52;19.30;;;;;;;-2.40;100.00;100941.56;1038039;28;20304;-83
2023/12/02 02:10:59;;;;;;;27.98;18.48;;;;;;;-2.35;100.00;100934.16;1041949;28;20300;-83
2023/12/02 02:11:30;;;;;;;30.16;19.12;;;;;;;-2.61;100.00;100938.97;1036047;28;20307;-83
2023/12/02 02:12:02;;;;;;;32.10;21.20;;;;;;;-2.81;100.00;100938.00;1038476;28;20045;-83
2023/12/02 02:12:34;;;;;;;28.35;20.02;;;;;;;-2.59;100.00;100941.44;1045287;28;20833;-82
2023/12/02 02:13:06;;;;;;;27.95;19.00;;;;;;;-2.60;100.00;100935.41;1040004;28;20308;-83
2023/12/02 02:13:37;;;;;;;33.25;21.52;;;;;;;-2.58;100.00;100940.47;1039876;28;20299;-82
2023/12/02 02:14:09;;;;;;;30.13;20.10;;;;;;;-2.74;100.00;100942.72;1048704;28;20295;-83
2023/12/02 02:14:41;;;;;;;26.55;18.00;;;;;;;-2.70;100.00;100938.91;1044640;28;20309;-83
2023/12/02 02:15:13;;;;;;;30.48;20.75;;;;;;;-2.66;100.00;100937.69;1040700;28;20683;-83
2023/12/02 02:15:44;;;;;;;35.28;20.70;;;;;;;-2.72;100.00;100935.59;1044917;28;20302;-83
2023/12/02 02:16:16;;;;;;;31.40;19.52;;;;;;;-2.78;100.00;100936.09;1037934;28;20308;-83
2023/12/02 02:16:47;;;;;;;31.55;21.02;;;;;;;-2.79;100.00;100940.47;1038580;28;20304;-83
2023/12/02 02:17:19;;;;;;;29.34;19.64;;;;;;;-2.67;100.00;100938.66;1040424;28;20307;-83
2023/12/02 02:17:50;;;;;;;31.25;20.33;;;;;;;-2.75;100.00;100933.22;1036116;28;20630;-83
2023/12/02 02:18:22;;;;;;;31.75;19.63;;;;;;;-2.84;100.00;100933.06;1030287;28;20306;-83
2023/12/02 02:18:54;;;;;;;30.52;20.23;;;;;;;-2.82;100.00;100933.75;1039332;28;20758;-83
2023/12/02 02:19:26;;;;;;;34.75;19.85;;;;;;;-2.80;100.00;100926.63;1050603;28;20302;-83
2023/12/02 02:19:57;;;;;;;28.95;19.10;;;;;;;-2.69;100.00;100935.34;1043268;28;20303;-83
2023/12/02 02:20:29;;;;;;;28.05;19.17;;;;;;;-2.79;100.00;100930.06;1034428;28;20289;-83
2023/12/02 02:21:01;;;;;;;30.35;20.33;;;;;;;-2.84;100.00;100930.44;1030002;28;20298;-83
2023/12/02 02:21:32;;;;;;;25.73;17.58;;;;;;;-2.81;100.00;100938.00;1047196;28;20333;-83
2023/12/02 02:22:04;;;;;;;29.10;17.85;;;;;;;-2.66;100.00;100935.91;1041684;28;20292;-83
2023/12/02 02:22:36;;;;;;;28.98;20.30;;;;;;;-2.68;100.00;100942.22;1038704;28;20304;-83
2023/12/02 02:23:07;;;;;;;29.73;19.25;;;;;;;-2.70;100.00;100936.31;1043643;28;20343;-83
2023/12/02 02:23:39;;;;;;;29.63;17.60;;;;;;;-2.76;100.00;100944.63;1043496;28;20327;-83
2023/12/02 02:24:10;;;;;;;31.33;19.38;;;;;;;-2.68;100.00;100942.22;1049050;28;20315;-83
2023/12/02 02:24:42;;;;;;;31.80;21.80;;;;;;;-2.57;100.00;100945.56;1043217;28;20300;-83
2023/12/02 02:25:14;;;;;;;29.40;20.10;;;;;;;-2.62;100.00;100941.69;1038819;28;20300;-83
2023/12/02 02:25:48;;;;;;;27.80;19.40;;;;;;;-2.58;100.00;100941.31;1036275;28;20308;-83
2023/12/02 02:26:19;;;;;;;30.50;18.73;;;;;;;-2.48;100.00;100938.75;1036618;28;20297;-83
2023/12/02 02:26:51;;;;;;;29.98;19.48;;;;;;;-2.50;100.00;100946.69;1035096;28;20304;-83
2023/12/02 02:27:22;;;;;;;29.60;19.23;;;;;;;-2.43;100.00;100947.03;1031177;28;20811;-83
2023/12/02 02:27:54;;;;;;;29.02;19.55;;;;;;;-2.33;100.00;100944.47;1032255;28;20308;-83
2023/12/02 02:28:27;;;;;;;31.38;19.88;;;;;;;-2.46;100.00;100955.13;1038926;28;20597;-83
2023/12/02 02:28:59;;;;;;;30.80;19.73;;;;;;;-2.38;100.00;100942.25;1043504;28;21039;-83
2023/12/02 02:29:31;;;;;;;31.23;20.02;;;;;;;-2.40;100.00;100951.97;1039578;28;20319;-83
2023/12/02 02:30:03;;;;;;;31.60;20.30;;;;;;;-2.49;100.00;100942.31;1032325;28;20310;-83
2023/12/02 02:30:34;;;;;;;29.80;19.30;;;;;;;-2.60;100.00;100945.00;1040116;28;20678;-83
2023/12/02 02:31:06;;;;;;;30.73;19.50;;;;;;;-2.58;100.00;100953.53;1045996;28;20805;-83
2023/12/02 02:31:38;;;;;;;28.58;20.08;;;;;;;-2.52;100.00;100951.22;1040899;28;20322;-83
2023/12/02 02:32:09;;;;;;;30.08;20.13;;;;;;;-2.53;100.00;100946.97;1041251;28;20306;-83
2023/12/02 02:32:41;;;;;;;28.95;18.92;;;;;;;-2.53;100.00;100951.34;1039348;28;20308;-82
2023/12/02 02:33:13;;;;;;;26.20;18.40;;;;;;;-2.48;100.00;100949.16;1037905;28;20891;-83
2023/12/02 02:33:44;;;;;;;30.92;18.85;;;;;;;-2.54;100.00;100950.53;1038215;28;20300;-83
2023/12/02 02:34:16;;;;;;;32.40;19.73;;;;;;;-2.60;100.00;100950.22;1041958;28;20300;-83
2023/12/02 02:34:48;;;;;;;35.00;21.08;;;;;;;-2.63;100.00;100946.09;1037598;28;20304;-83
2023/12/02 02:35:20;;;;;;;29.02;19.60;;;;;;;-2.38;100.00;100944.84;1037617;28;20334;-83
2023/12/02 02:35:51;;;;;;;31.27;20.48;;;;;;;-2.25;100.00;100955.88;1032804;28;20311;-83
2023/12/02 02:36:23;;;;;;;28.60;18.77;;;;;;;-2.17;100.00;100951.81;1037236;28;20317;-83
2023/12/02 02:36:55;;;;;;;30.30;19.98;;;;;;;-2.13;100.00;100955.81;1034252;28;20297;-83
2023/12/02 02:37:26;;;;;;;30.77;20.52;;;;;;;-2.09;100.00;100951.97;1034765;28;20320;-83
2023/12/02 02:37:58;;;;;;;26.75;18.67;;;;;;;-2.05;100.00;100956.78;1035963;28;20303;-83
2023/12/02 02:38:30;;;;;;;31.50;18.75;;;;;;;-2.04;100.00;100952.41;1037893;28;20362;-83
2023/12/02 02:39:01;;;;;;;29.80;20.00;;;;;;;-2.13;100.00;100943.59;1042215;28;20308;-82
2023/12/02 02:39:33;;;;;;;29.08;19.30;;;;;;;-2.35;100.00;100948.97;1041800;28;20436;-83
2023/12/02 02:40:06;;;;;;;28.20;18.67;;;;;;;-2.39;100.00;100948.41;1037383;28;20308;-83
2023/12/02 02:40:37;;;;;;;29.88;18.25;;;;;;;-2.40;100.00;100951.16;1033920;28;20309;-82
2023/12/02 02:41:09;;;;;;;27.20;18.50;;;;;;;-2.47;100.00;100950.00;1037958;28;20300;-83
2023/12/02 02:41:41;;;;;;;28.94;20.20;;;;;;;-2.69;100.00;100945.78;1050593;28;20915;-82
2023/12/02 02:42:13;;;;;;;29.12;18.96;;;;;;;-2.85;100.00;100947.03;1046326;28;20048;-83
2023/12/02 02:42:44;;;;;;;29.05;18.58;;;;;;;-2.93;100.00;100949.47;1041565;28;20092;-83
2023/12/02 02:43:16;;;;;;;28.65;19.40;;;;;;;-2.84;100.00;100948.69;1037552;28;20312;-83
2023/12/02 02:43:47;;;;;;;30.08;19.08;;;;;;;-2.77;100.00;100956.81;1038134;28;20307;-83
2023/12/02 02:44:19;;;;;;;29.40;19.73;;;;;;;-2.86;100.00;100961.03;1041549;28;20883;-83